createdAt,value
2022-09-29T00:00:13.427Z,9.18
2022-09-29T00:00:27.054Z,9.18
2022-09-29T00:00:39.167Z,9.17
2022-09-29T00:00:52.800Z,9.18
2022-09-29T00:01:04.887Z,9.20
2022-09-29T00:01:16.972Z,9.20
2022-09-29T00:01:29.010Z,9.20
2022-09-29T00:01:41.110Z,9.22
2022-09-29T00:01:53.170Z,9.21
2022-09-29T00:02:05.236Z,9.20
2022-09-29T00:02:17.351Z,9.22
2022-09-29T00:02:29.369Z,9.22
2022-09-29T00:02:41.424Z,9.22
2022-09-29T00:02:54.227Z,9.22
2022-09-29T00:03:07.193Z,9.24
2022-09-29T00:03:20.307Z,9.23
2022-09-29T00:03:32.572Z,9.25
2022-09-29T00:03:44.738Z,9.26
2022-09-29T00:03:56.837Z,9.26
2022-09-29T00:04:09.504Z,9.26
2022-09-29T00:04:21.468Z,9.26
2022-09-29T00:04:33.429Z,9.25
2022-09-29T00:04:45.406Z,9.25
2022-09-29T00:04:57.471Z,9.25
2022-09-29T00:05:09.512Z,9.25
2022-09-29T00:05:22.088Z,9.25
2022-09-29T00:05:35.210Z,9.24
2022-09-29T00:05:51.962Z,9.25
2022-09-29T00:06:04.287Z,9.24
2022-09-29T00:06:18.428Z,9.25
2022-09-29T00:06:30.551Z,9.25
2022-09-29T00:06:42.516Z,9.25
2022-09-29T00:06:54.538Z,9.24
2022-09-29T00:07:06.496Z,9.22
2022-09-29T00:07:18.585Z,9.25
2022-09-29T00:07:32.217Z,9.25
2022-09-29T00:07:44.634Z,9.26
2022-09-29T00:07:56.767Z,9.24
2022-09-29T00:08:08.828Z,9.23
2022-09-29T00:08:23.337Z,9.26
2022-09-29T00:08:35.329Z,9.24
2022-09-29T00:08:47.687Z,9.22
2022-09-29T00:08:59.707Z,9.22
2022-09-29T00:09:11.731Z,9.22
2022-09-29T00:09:23.757Z,9.23
2022-09-29T00:09:35.745Z,9.22
2022-09-29T00:09:47.723Z,9.22
2022-09-29T00:09:59.944Z,9.22
2022-09-29T00:10:11.996Z,9.22
2022-09-29T00:10:24.185Z,9.24
2022-09-29T00:10:40.296Z,9.23
2022-09-29T00:10:52.398Z,9.23
2022-09-29T00:11:08.186Z,9.24
2022-09-29T00:11:20.370Z,9.24
2022-09-29T00:11:32.588Z,9.25
2022-09-29T00:11:44.532Z,9.26
2022-09-29T00:11:56.887Z,9.27
2022-09-29T00:12:08.878Z,9.26
2022-09-29T00:12:20.876Z,9.27
2022-09-29T00:12:32.839Z,9.28
2022-09-29T00:12:44.957Z,9.25
2022-09-29T00:12:57.093Z,9.24
2022-09-29T00:13:09.047Z,9.24
2022-09-29T00:13:21.587Z,9.24
2022-09-29T00:13:33.615Z,9.26
2022-09-29T00:13:47.177Z,9.26
2022-09-29T00:13:59.196Z,9.28
2022-09-29T00:14:11.188Z,9.27
2022-09-29T00:14:24.326Z,9.29
2022-09-29T00:14:36.396Z,9.28
2022-09-29T00:14:48.380Z,9.26
2022-09-29T00:15:00.444Z,9.24
2022-09-29T00:15:13.810Z,9.24
2022-09-29T00:15:25.764Z,9.25
2022-09-29T00:15:37.764Z,9.24
2022-09-29T00:16:01.020Z,9.23
2022-09-29T00:16:13.555Z,9.25
2022-09-29T00:16:25.596Z,9.25
2022-09-29T00:16:37.694Z,9.25
2022-09-29T00:16:50.644Z,9.25
2022-09-29T00:17:02.758Z,9.26
2022-09-29T00:17:14.935Z,9.27
2022-09-29T00:17:26.936Z,9.28
2022-09-29T00:17:38.862Z,9.29
2022-09-29T00:18:12.716Z,9.30
2022-09-29T00:18:22.802Z,9.27
2022-09-29T00:18:35.678Z,9.29
2022-09-29T00:18:47.772Z,9.29
2022-09-29T00:18:59.829Z,9.28
2022-09-29T00:19:11.861Z,9.28
2022-09-29T00:19:23.823Z,9.29
2022-09-29T00:19:35.823Z,9.29
2022-09-29T00:19:48.095Z,9.28
2022-09-29T00:20:00.258Z,9.26
2022-09-29T00:20:12.221Z,9.24
2022-09-29T00:20:24.393Z,9.22
2022-09-29T00:20:36.912Z,9.24
2022-09-29T00:20:57.170Z,9.21
2022-09-29T00:21:19.851Z,9.22
2022-09-29T00:21:31.868Z,9.23
2022-09-29T00:21:43.942Z,9.25
2022-09-29T00:21:55.945Z,9.23
2022-09-29T00:22:07.936Z,9.23
2022-09-29T00:22:20.078Z,9.25
2022-09-29T00:22:32.390Z,9.26
2022-09-29T00:22:44.352Z,9.26
2022-09-29T00:22:56.353Z,9.26
2022-09-29T00:23:08.339Z,9.27
2022-09-29T00:23:20.301Z,9.27
2022-09-29T00:23:34.125Z,9.28
2022-09-29T00:23:46.763Z,9.27
2022-09-29T00:24:00.924Z,9.26
2022-09-29T00:24:12.914Z,9.26
2022-09-29T00:24:25.323Z,9.26
2022-09-29T00:24:37.420Z,9.28
2022-09-29T00:24:49.783Z,9.28
2022-09-29T00:25:01.905Z,9.30
2022-09-29T00:25:13.972Z,9.30
2022-09-29T00:25:26.188Z,9.31
2022-09-29T00:25:38.245Z,9.32
2022-09-29T00:26:02.513Z,9.31
2022-09-29T00:26:20.300Z,9.31
2022-09-29T00:26:32.430Z,9.31
2022-09-29T00:26:46.667Z,9.30
2022-09-29T00:26:58.693Z,9.31
2022-09-29T00:27:10.661Z,9.31
2022-09-29T00:27:22.676Z,9.32
2022-09-29T00:27:34.674Z,9.32
2022-09-29T00:27:46.692Z,9.32
2022-09-29T00:27:58.793Z,9.34
2022-09-29T00:28:10.741Z,9.35
2022-09-29T00:28:22.802Z,9.34
2022-09-29T00:28:36.571Z,9.35
2022-09-29T00:28:55.527Z,9.34
2022-09-29T00:29:07.519Z,9.34
2022-09-29T00:29:19.501Z,9.31
2022-09-29T00:29:31.475Z,9.30
2022-09-29T00:29:43.893Z,9.31
2022-09-29T00:29:55.840Z,9.31
2022-09-29T00:30:08.139Z,9.31
2022-09-29T00:30:20.148Z,9.31
2022-09-29T00:30:32.085Z,9.33
2022-09-29T00:30:44.121Z,9.33
2022-09-29T00:30:59.128Z,9.33
2022-09-29T00:31:12.386Z,9.34
2022-09-29T00:31:29.588Z,9.34
2022-09-29T00:31:41.714Z,9.34
2022-09-29T00:31:54.199Z,9.35
2022-09-29T00:32:06.226Z,9.35
2022-09-29T00:32:18.251Z,9.35
2022-09-29T00:32:30.262Z,9.34
2022-09-29T00:32:42.267Z,9.35
2022-09-29T00:32:54.261Z,9.36
2022-09-29T00:33:06.277Z,9.35
2022-09-29T00:33:18.228Z,9.36
2022-09-29T00:33:32.214Z,9.37
2022-09-29T00:33:44.348Z,9.36
2022-09-29T00:33:57.033Z,9.36
2022-09-29T00:34:09.009Z,9.36
2022-09-29T00:34:21.058Z,9.35
2022-09-29T00:34:33.109Z,9.35
2022-09-29T00:34:45.114Z,9.36
2022-09-29T00:34:57.538Z,9.35
2022-09-29T00:35:10.827Z,9.35
2022-09-29T00:35:22.847Z,9.31
2022-09-29T00:35:34.840Z,9.30
2022-09-29T00:36:00.509Z,9.29
2022-09-29T00:36:15.318Z,9.30
2022-09-29T00:36:30.950Z,9.30
2022-09-29T00:36:42.973Z,9.30
2022-09-29T00:36:54.949Z,9.30
2022-09-29T00:37:06.982Z,9.30
2022-09-29T00:37:18.932Z,9.30
2022-09-29T00:37:31.262Z,9.32
2022-09-29T00:37:43.343Z,9.33
2022-09-29T00:37:55.327Z,9.34
2022-09-29T00:38:07.280Z,9.35
2022-09-29T00:38:19.217Z,9.32
2022-09-29T00:38:32.106Z,9.34
2022-09-29T00:38:46.769Z,9.35
2022-09-29T00:38:59.588Z,9.36
2022-09-29T00:39:11.944Z,9.33
2022-09-29T00:39:23.894Z,9.35
2022-09-29T00:39:35.977Z,9.35
2022-09-29T00:39:48.052Z,9.35
2022-09-29T00:40:01.744Z,9.33
2022-09-29T00:40:13.946Z,9.33
2022-09-29T00:40:25.986Z,9.32
2022-09-29T00:40:38.020Z,9.30
2022-09-29T00:40:50.070Z,9.31
2022-09-29T00:41:02.540Z,9.31
2022-09-29T00:41:18.114Z,9.29
2022-09-29T00:41:35.956Z,9.26
2022-09-29T00:41:47.909Z,9.27
2022-09-29T00:41:59.874Z,9.28
2022-09-29T00:42:13.021Z,9.28
2022-09-29T00:42:25.463Z,9.27
2022-09-29T00:42:37.525Z,9.25
2022-09-29T00:42:49.527Z,9.25
2022-09-29T00:43:01.554Z,9.26
2022-09-29T00:43:21.695Z,9.25
2022-09-29T00:43:55.297Z,9.26
2022-09-29T00:44:45.624Z,9.24
2022-09-29T00:45:03.216Z,9.26
2022-09-29T00:45:24.245Z,9.28
2022-09-29T00:45:36.620Z,9.30
2022-09-29T00:45:51.199Z,9.28
2022-09-29T00:46:03.387Z,9.29
2022-09-29T00:46:19.131Z,9.28
2022-09-29T00:46:37.224Z,9.28
2022-09-29T00:47:03.154Z,9.29
2022-09-29T00:47:17.994Z,9.30
2022-09-29T00:47:33.325Z,9.30
2022-09-29T00:47:49.501Z,9.30
2022-09-29T00:48:14.563Z,9.30
2022-09-29T00:48:32.533Z,9.31
2022-09-29T00:48:46.863Z,9.32
2022-09-29T00:49:05.866Z,9.32
2022-09-29T00:49:23.618Z,9.32
2022-09-29T00:50:01.825Z,9.28
2022-09-29T00:50:27.447Z,9.28
2022-09-29T00:50:47.380Z,9.26
2022-09-29T00:50:59.923Z,9.26
2022-09-29T00:51:12.170Z,9.28
2022-09-29T00:51:26.711Z,9.27
2022-09-29T00:51:40.472Z,9.27
2022-09-29T00:51:59.373Z,9.28
2022-09-29T00:52:17.009Z,9.27
2022-09-29T00:52:40.982Z,9.26
2022-09-29T00:53:01.817Z,9.25
2022-09-29T00:53:20.577Z,9.26
2022-09-29T00:53:34.391Z,9.26
2022-09-29T00:53:48.078Z,9.25
2022-09-29T00:54:00.958Z,9.23
2022-09-29T00:54:13.648Z,9.25
2022-09-29T00:54:30.786Z,9.24
2022-09-29T00:54:49.525Z,9.23
2022-09-29T00:55:07.201Z,9.22
2022-09-29T00:55:37.780Z,9.19
2022-09-29T00:56:09.109Z,9.15
2022-09-29T00:56:21.399Z,9.13
2022-09-29T00:56:35.302Z,9.12
2022-09-29T00:56:48.906Z,9.12
2022-09-29T00:57:02.921Z,9.13
2022-09-29T00:57:17.857Z,9.13
2022-09-29T00:57:37.180Z,9.13
2022-09-29T00:57:57.387Z,9.11
2022-09-29T00:58:15.657Z,9.13
2022-09-29T00:58:35.553Z,9.13
2022-09-29T00:58:56.618Z,9.13
2022-09-29T00:59:15.577Z,9.14
2022-09-29T00:59:40.159Z,9.12
2022-09-29T01:00:04.326Z,9.08
2022-09-29T01:00:17.180Z,9.07
2022-09-29T01:00:29.649Z,9.06
2022-09-29T01:00:43.748Z,9.04
2022-09-29T01:00:55.865Z,9.06
2022-09-29T01:01:08.727Z,9.06
2022-09-29T01:01:26.840Z,9.03
2022-09-29T01:01:38.947Z,9.00
2022-09-29T01:01:52.408Z,9.02
2022-09-29T01:02:06.189Z,9.02
2022-09-29T01:02:19.814Z,9.00
2022-09-29T01:02:35.501Z,9.00
2022-09-29T01:02:52.093Z,9.02
2022-09-29T01:03:15.450Z,9.03
2022-09-29T01:03:36.621Z,9.04
2022-09-29T01:03:49.569Z,9.05
2022-09-29T01:04:11.032Z,9.03
2022-09-29T01:04:23.665Z,9.03
2022-09-29T01:04:35.874Z,9.02
2022-09-29T01:04:52.820Z,9.06
2022-09-29T01:05:10.746Z,9.07
2022-09-29T01:05:30.375Z,9.07
2022-09-29T01:05:50.174Z,9.04
2022-09-29T01:06:10.307Z,9.05
2022-09-29T01:06:32.098Z,9.00
2022-09-29T01:06:51.579Z,9.02
2022-09-29T01:07:03.836Z,9.04
2022-09-29T01:07:15.847Z,9.04
2022-09-29T01:07:28.355Z,9.03
2022-09-29T01:07:41.286Z,9.03
2022-09-29T01:07:53.624Z,9.05
2022-09-29T01:08:34.108Z,9.06
2022-09-29T01:08:59.404Z,9.03
2022-09-29T01:09:15.995Z,9.04
2022-09-29T01:09:32.174Z,9.04
2022-09-29T01:09:44.289Z,9.03
2022-09-29T01:09:57.786Z,9.04
2022-09-29T01:10:11.156Z,9.02
2022-09-29T01:10:24.647Z,8.99
2022-09-29T01:10:38.794Z,9.00
2022-09-29T01:10:52.167Z,9.02
2022-09-29T01:11:05.343Z,9.00
2022-09-29T01:11:20.081Z,8.98
2022-09-29T01:11:32.614Z,8.99
2022-09-29T01:11:44.819Z,8.98
2022-09-29T01:12:00.954Z,8.97
2022-09-29T01:12:12.901Z,8.94
2022-09-29T01:12:24.892Z,8.95
2022-09-29T01:12:37.024Z,8.93
2022-09-29T01:12:49.616Z,8.93
2022-09-29T01:13:02.154Z,8.92
2022-09-29T01:13:15.008Z,8.91
2022-09-29T01:13:27.017Z,8.90
2022-09-29T01:13:40.082Z,8.93
2022-09-29T01:13:54.604Z,8.95
2022-09-29T01:14:09.272Z,8.93
2022-09-29T01:14:22.002Z,8.94
2022-09-29T01:14:36.825Z,8.94
2022-09-29T01:14:49.354Z,8.96
2022-09-29T01:15:01.500Z,8.91
2022-09-29T01:15:16.156Z,8.85
2022-09-29T01:15:29.876Z,8.85
2022-09-29T01:15:41.933Z,8.87
2022-09-29T01:15:53.963Z,8.89
2022-09-29T01:16:06.182Z,8.90
2022-09-29T01:16:18.219Z,8.89
2022-09-29T01:16:32.368Z,8.89
2022-09-29T01:16:44.687Z,8.91
2022-09-29T01:16:56.812Z,8.93
2022-09-29T01:17:08.874Z,8.91
2022-09-29T01:17:21.851Z,8.92
2022-09-29T01:17:34.035Z,8.92
2022-09-29T01:17:47.410Z,8.93
2022-09-29T01:17:59.484Z,8.92
2022-09-29T01:18:11.760Z,8.94
2022-09-29T01:18:24.482Z,8.94
2022-09-29T01:18:36.872Z,8.95
2022-09-29T01:18:48.939Z,8.96
2022-09-29T01:19:06.720Z,8.97
2022-09-29T01:19:22.942Z,9.01
2022-09-29T01:20:04.794Z,9.07
2022-09-29T01:20:22.484Z,9.07
2022-09-29T01:20:43.352Z,9.08
2022-09-29T01:21:13.069Z,9.11
2022-09-29T01:21:51.173Z,9.12
2022-09-29T01:22:26.104Z,9.17
2022-09-29T01:23:02.819Z,9.19
2022-09-29T01:23:40.281Z,9.22
2022-09-29T01:24:30.938Z,9.25
2022-09-29T01:24:57.320Z,9.30
2022-09-29T01:25:41.385Z,9.32
2022-09-29T01:26:11.887Z,9.32
2022-09-29T01:27:01.775Z,9.32
2022-09-29T01:27:34.932Z,9.34
2022-09-29T01:27:55.507Z,9.36
2022-09-29T01:28:31.859Z,9.36
2022-09-29T01:28:46.417Z,9.38
2022-09-29T01:29:36.689Z,9.35
2022-09-29T01:30:15.375Z,9.38
2022-09-29T01:31:14.844Z,9.42
2022-09-29T01:31:41.289Z,9.43
2022-09-29T01:32:14.602Z,9.44
2022-09-29T01:32:44.819Z,9.42
2022-09-29T01:33:21.562Z,9.44
2022-09-29T01:33:54.536Z,9.47
2022-09-29T01:34:17.291Z,9.49
2022-09-29T01:34:39.157Z,9.49
2022-09-29T01:35:04.246Z,9.51
2022-09-29T01:35:24.816Z,9.52
2022-09-29T01:35:42.926Z,9.55
2022-09-29T01:36:04.555Z,9.56
2022-09-29T01:36:19.089Z,9.55
2022-09-29T01:36:53.917Z,9.53
2022-09-29T01:37:16.957Z,9.55
2022-09-29T01:37:51.105Z,9.55
2022-09-29T01:38:10.324Z,9.57
2022-09-29T01:38:54.453Z,9.62
2022-09-29T01:39:15.644Z,9.64
2022-09-29T01:39:42.032Z,9.66
2022-09-29T01:40:09.111Z,9.67
2022-09-29T01:40:29.641Z,9.67
2022-09-29T01:40:57.453Z,9.67
2022-09-29T01:41:35.341Z,9.64
2022-09-29T01:41:55.446Z,9.66
2022-09-29T01:42:13.585Z,9.68
2022-09-29T01:42:32.616Z,9.70
2022-09-29T01:43:04.712Z,9.71
2022-09-29T01:43:32.103Z,9.74
2022-09-29T01:43:53.873Z,9.74
2022-09-29T01:44:24.903Z,9.72
2022-09-29T01:44:46.849Z,9.74
2022-09-29T01:45:02.681Z,9.75
2022-09-29T01:45:33.049Z,9.77
2022-09-29T01:45:57.191Z,9.73
2022-09-29T01:46:18.263Z,9.75
2022-09-29T01:46:30.231Z,9.77
2022-09-29T01:46:56.365Z,9.72
2022-09-29T01:47:13.076Z,9.72
2022-09-29T01:47:35.470Z,9.70
2022-09-29T01:47:54.511Z,9.69
2022-09-29T01:48:11.929Z,9.71
2022-09-29T01:48:31.630Z,9.70
2022-09-29T01:48:49.229Z,9.69
2022-09-29T01:49:03.060Z,9.70
2022-09-29T01:49:17.988Z,9.70
2022-09-29T01:49:33.669Z,9.72
2022-09-29T01:49:50.237Z,9.71
2022-09-29T01:50:11.532Z,9.72
2022-09-29T01:50:35.551Z,9.74
2022-09-29T01:50:51.157Z,9.75
2022-09-29T01:51:09.769Z,9.78
2022-09-29T01:51:29.319Z,9.77
2022-09-29T01:51:49.327Z,9.80
2022-09-29T01:52:07.770Z,9.79
2022-09-29T01:52:24.678Z,9.77
2022-09-29T01:52:42.669Z,9.79
2022-09-29T01:53:01.721Z,9.80
2022-09-29T01:53:25.798Z,9.75
2022-09-29T01:53:43.077Z,9.76
2022-09-29T01:54:01.028Z,9.79
2022-09-29T01:54:19.747Z,9.80
2022-09-29T01:54:44.086Z,9.83
2022-09-29T01:55:07.576Z,9.87
2022-09-29T01:55:23.659Z,9.88
2022-09-29T01:55:41.961Z,9.86
2022-09-29T01:56:01.666Z,9.88
2022-09-29T01:56:21.967Z,9.88
2022-09-29T01:56:33.943Z,9.88
2022-09-29T01:56:59.578Z,9.89
2022-09-29T01:57:33.442Z,9.84
2022-09-29T01:57:51.478Z,9.86
2022-09-29T01:58:09.061Z,9.87
2022-09-29T01:58:42.955Z,9.84
2022-09-29T01:59:01.954Z,9.81
2022-09-29T01:59:26.276Z,9.84
2022-09-29T01:59:45.596Z,9.84
2022-09-29T02:00:07.567Z,9.81
2022-09-29T02:00:23.775Z,9.85
2022-09-29T02:00:41.987Z,9.87
2022-09-29T02:01:00.263Z,9.86
2022-09-29T02:01:15.250Z,9.88
2022-09-29T02:01:34.605Z,9.90
2022-09-29T02:01:50.238Z,9.92
2022-09-29T02:02:10.020Z,9.93
2022-09-29T02:02:30.545Z,9.96
2022-09-29T02:03:06.082Z,9.95
2022-09-29T02:03:32.827Z,9.95
2022-09-29T02:04:07.655Z,9.94
2022-09-29T02:04:29.645Z,9.92
2022-09-29T02:04:46.834Z,9.91
2022-09-29T02:05:03.366Z,9.89
2022-09-29T02:05:27.910Z,9.86
2022-09-29T02:05:47.811Z,9.82
2022-09-29T02:06:04.676Z,9.82
2022-09-29T02:06:28.884Z,9.85
2022-09-29T02:07:00.194Z,9.85
2022-09-29T02:07:28.975Z,9.90
2022-09-29T02:07:44.237Z,9.91
2022-09-29T02:08:00.402Z,9.92
2022-09-29T02:08:32.694Z,9.92
2022-09-29T02:08:54.355Z,9.92
2022-09-29T02:09:15.742Z,9.91
2022-09-29T02:09:34.412Z,9.88
2022-09-29T02:09:52.152Z,9.89
2022-09-29T02:10:17.622Z,9.89
2022-09-29T02:10:35.003Z,9.90
2022-09-29T02:11:01.024Z,9.92
2022-09-29T02:11:14.436Z,9.93
2022-09-29T02:11:27.841Z,9.93
2022-09-29T02:11:42.731Z,9.93
2022-09-29T02:11:58.251Z,9.92
2022-09-29T02:12:17.491Z,9.91
2022-09-29T02:12:32.663Z,9.91
2022-09-29T02:12:47.044Z,9.92
2022-09-29T02:13:02.592Z,9.92
2022-09-29T02:13:16.514Z,9.89
2022-09-29T02:13:34.381Z,9.82
2022-09-29T02:13:55.121Z,9.83
2022-09-29T02:14:18.966Z,9.72
2022-09-29T02:14:38.170Z,9.71
2022-09-29T02:14:52.312Z,9.70
2022-09-29T02:15:09.648Z,9.73
2022-09-29T02:15:27.448Z,9.75
2022-09-29T02:15:46.642Z,9.78
2022-09-29T02:16:01.073Z,9.79
2022-09-29T02:16:17.758Z,9.81
2022-09-29T02:16:35.125Z,9.73
2022-09-29T02:16:52.545Z,9.74
2022-09-29T02:17:21.161Z,9.77
2022-09-29T02:17:38.675Z,9.77
2022-09-29T02:17:53.111Z,9.76
2022-09-29T02:18:16.370Z,9.72
2022-09-29T02:18:42.093Z,9.73
2022-09-29T02:18:58.815Z,9.67
2022-09-29T02:19:19.278Z,9.62
2022-09-29T02:19:36.845Z,9.46
2022-09-29T02:19:52.064Z,9.37
2022-09-29T02:20:04.819Z,9.28
2022-09-29T02:20:16.987Z,9.18
2022-09-29T02:20:29.228Z,9.10
2022-09-29T02:20:41.260Z,9.00
2022-09-29T02:20:53.206Z,8.91
2022-09-29T02:21:05.346Z,8.91
2022-09-29T02:21:17.397Z,8.79
2022-09-29T02:21:29.352Z,8.79
2022-09-29T02:21:41.449Z,8.88
2022-09-29T02:21:54.555Z,8.92
2022-09-29T02:22:06.709Z,8.99
2022-09-29T02:22:19.825Z,9.04
2022-09-29T02:22:32.618Z,9.09
2022-09-29T02:22:45.034Z,9.14
2022-09-29T02:22:57.852Z,9.18
2022-09-29T02:23:10.605Z,9.20
2022-09-29T02:23:22.620Z,9.26
2022-09-29T02:23:34.730Z,9.27
2022-09-29T02:23:46.713Z,9.31
2022-09-29T02:23:58.799Z,9.34
2022-09-29T02:24:12.511Z,9.35
2022-09-29T02:24:25.269Z,9.38
2022-09-29T02:24:37.318Z,9.41
2022-09-29T02:24:54.655Z,9.42
2022-09-29T02:25:11.245Z,9.46
2022-09-29T02:25:24.173Z,9.49
2022-09-29T02:25:39.303Z,9.52
2022-09-29T02:25:52.378Z,9.54
2022-09-29T02:26:04.398Z,9.58
2022-09-29T02:26:17.916Z,9.49
2022-09-29T02:26:34.479Z,9.45
2022-09-29T02:26:47.444Z,9.41
2022-09-29T02:27:00.160Z,9.37
2022-09-29T02:27:12.812Z,9.41
2022-09-29T02:27:28.666Z,9.42
2022-09-29T02:27:41.257Z,9.26
2022-09-29T02:27:53.620Z,9.25
2022-09-29T02:28:07.421Z,9.18
2022-09-29T02:28:19.545Z,9.16
2022-09-29T02:28:31.744Z,9.09
2022-09-29T02:28:45.228Z,9.04
2022-09-29T02:28:57.592Z,9.06
2022-09-29T02:29:09.774Z,9.05
2022-09-29T02:29:21.788Z,8.93
2022-09-29T02:29:36.057Z,8.91
2022-09-29T02:29:48.806Z,8.88
2022-09-29T02:30:00.903Z,8.85
2022-09-29T02:30:13.106Z,8.85
2022-09-29T02:30:25.141Z,8.78
2022-09-29T02:30:37.181Z,8.82
2022-09-29T02:30:50.862Z,8.82
2022-09-29T02:31:03.678Z,8.81
2022-09-29T02:31:17.003Z,8.83
2022-09-29T02:31:29.948Z,8.78
2022-09-29T02:31:44.279Z,8.73
2022-09-29T02:32:01.311Z,8.76
2022-09-29T02:32:14.175Z,8.66
2022-09-29T02:32:27.553Z,8.66
2022-09-29T02:32:39.842Z,8.59
2022-09-29T02:32:51.846Z,8.58
2022-09-29T02:33:03.891Z,8.54
2022-09-29T02:33:24.089Z,8.52
2022-09-29T02:33:36.104Z,8.47
2022-09-29T02:33:48.052Z,8.46
2022-09-29T02:34:02.151Z,8.53
2022-09-29T02:34:18.010Z,8.54
2022-09-29T02:34:41.252Z,8.55
2022-09-29T02:34:55.055Z,8.60
2022-09-29T02:35:12.660Z,8.66
2022-09-29T02:35:30.154Z,8.70
2022-09-29T02:35:56.995Z,8.76
2022-09-29T02:36:42.334Z,8.84
2022-09-29T02:37:06.438Z,8.80
2022-09-29T02:37:52.522Z,8.73
2022-09-29T02:38:12.194Z,8.68
2022-09-29T02:39:04.018Z,8.51
2022-09-29T02:39:54.172Z,8.53
2022-09-29T02:40:18.569Z,8.57
2022-09-29T02:40:54.881Z,8.60
2022-09-29T02:41:32.090Z,8.65
2022-09-29T02:42:03.914Z,8.70
2022-09-29T02:42:27.721Z,8.72
2022-09-29T02:42:58.379Z,8.68
2022-09-29T02:43:28.864Z,8.60
2022-09-29T02:44:12.139Z,8.67
2022-09-29T02:44:50.640Z,8.71
2022-09-29T02:45:08.421Z,8.64
2022-09-29T02:45:25.916Z,8.60
2022-09-29T02:46:02.055Z,8.57
2022-09-29T02:46:44.256Z,8.67
2022-09-29T02:47:04.158Z,8.62
2022-09-29T02:47:42.381Z,8.69
2022-09-29T02:48:21.191Z,8.75
2022-09-29T02:48:55.332Z,8.82
2022-09-29T02:49:34.750Z,8.91
2022-09-29T02:50:22.067Z,8.98
2022-09-29T02:50:58.697Z,9.04
2022-09-29T02:51:20.167Z,9.04
2022-09-29T02:51:41.720Z,9.11
2022-09-29T02:52:02.703Z,9.15
2022-09-29T02:52:30.685Z,9.19
2022-09-29T02:52:45.435Z,9.17
2022-09-29T02:53:03.238Z,9.16
2022-09-29T02:53:24.004Z,9.16
2022-09-29T02:53:38.955Z,9.16
2022-09-29T02:54:31.907Z,9.03
2022-09-29T02:55:01.583Z,8.97
2022-09-29T02:55:25.693Z,8.88
2022-09-29T02:55:50.881Z,8.86
2022-09-29T02:56:27.436Z,8.83
2022-09-29T02:56:54.419Z,8.76
2022-09-29T02:57:39.440Z,8.57
2022-09-29T02:57:58.945Z,8.39
2022-09-29T02:58:23.668Z,8.43
2022-09-29T02:59:01.418Z,8.35
2022-09-29T02:59:20.404Z,8.39
2022-09-29T02:59:50.939Z,8.41
2022-09-29T03:00:10.881Z,8.44
2022-09-29T03:00:26.566Z,8.48
2022-09-29T03:00:39.918Z,8.53
2022-09-29T03:00:54.176Z,8.56
2022-09-29T03:01:07.650Z,8.59
2022-09-29T03:01:19.959Z,8.62
2022-09-29T03:01:33.906Z,8.66
2022-09-29T03:01:51.223Z,8.72
2022-09-29T03:02:03.188Z,8.74
2022-09-29T03:02:16.494Z,8.77
2022-09-29T03:02:28.482Z,8.83
2022-09-29T03:02:42.163Z,8.87
2022-09-29T03:02:54.167Z,8.90
2022-09-29T03:03:06.183Z,8.89
2022-09-29T03:03:18.227Z,8.93
2022-09-29T03:03:30.248Z,8.95
2022-09-29T03:03:43.162Z,8.96
2022-09-29T03:03:55.288Z,9.00
2022-09-29T03:04:08.261Z,9.03
2022-09-29T03:04:22.504Z,9.05
2022-09-29T03:04:34.473Z,9.08
2022-09-29T03:04:46.455Z,9.10
2022-09-29T03:04:58.531Z,9.11
2022-09-29T03:05:17.060Z,9.08
2022-09-29T03:05:29.297Z,9.01
2022-09-29T03:05:41.274Z,8.97
2022-09-29T03:05:53.587Z,8.96
2022-09-29T03:06:05.772Z,8.98
2022-09-29T03:06:19.433Z,8.95
2022-09-29T03:06:31.448Z,8.95
2022-09-29T03:06:45.800Z,8.92
2022-09-29T03:06:58.100Z,8.91
2022-09-29T03:07:10.043Z,8.86
2022-09-29T03:07:22.359Z,8.84
2022-09-29T03:07:37.032Z,8.75
2022-09-29T03:07:49.370Z,8.74
2022-09-29T03:08:01.555Z,8.69
2022-09-29T03:08:15.942Z,8.70
2022-09-29T03:08:27.889Z,8.66
2022-09-29T03:08:39.878Z,8.66
2022-09-29T03:08:53.973Z,8.69
2022-09-29T03:09:05.992Z,8.71
2022-09-29T03:09:18.212Z,8.77
2022-09-29T03:09:32.303Z,8.74
2022-09-29T03:09:45.009Z,8.75
2022-09-29T03:09:57.114Z,8.70
2022-09-29T03:10:12.001Z,8.64
2022-09-29T03:10:27.975Z,8.56
2022-09-29T03:10:42.219Z,8.56
2022-09-29T03:10:54.220Z,8.57
2022-09-29T03:11:06.229Z,8.58
2022-09-29T03:11:20.800Z,8.57
2022-09-29T03:11:32.770Z,8.59
2022-09-29T03:11:44.755Z,8.60
2022-09-29T03:11:56.789Z,8.64
2022-09-29T03:12:08.769Z,8.63
2022-09-29T03:12:20.788Z,8.64
2022-09-29T03:12:33.039Z,8.67
2022-09-29T03:12:46.675Z,8.66
2022-09-29T03:12:58.650Z,8.71
2022-09-29T03:13:10.658Z,8.72
2022-09-29T03:13:22.630Z,8.75
2022-09-29T03:13:34.604Z,8.78
2022-09-29T03:13:46.550Z,8.78
2022-09-29T03:13:58.510Z,8.78
2022-09-29T03:14:10.621Z,8.80
2022-09-29T03:14:22.624Z,8.82
2022-09-29T03:14:34.588Z,8.87
2022-09-29T03:14:46.809Z,8.90
2022-09-29T03:14:58.825Z,8.95
2022-09-29T03:15:12.563Z,8.97
2022-09-29T03:15:24.638Z,8.98
2022-09-29T03:15:39.219Z,8.99
2022-09-29T03:15:51.341Z,9.02
2022-09-29T03:16:03.456Z,9.04
2022-09-29T03:16:18.317Z,9.04
2022-09-29T03:16:30.474Z,9.06
2022-09-29T03:16:43.690Z,9.05
2022-09-29T03:16:55.731Z,9.05
2022-09-29T03:17:07.687Z,9.08
2022-09-29T03:17:19.678Z,9.10
2022-09-29T03:17:31.674Z,9.10
2022-09-29T03:17:54.001Z,9.10
2022-09-29T03:18:10.057Z,8.99
2022-09-29T03:18:23.651Z,8.97
2022-09-29T03:18:35.627Z,8.94
2022-09-29T03:18:47.590Z,8.97
2022-09-29T03:18:59.608Z,8.95
2022-09-29T03:19:11.585Z,8.93
2022-09-29T03:19:23.569Z,8.90
2022-09-29T03:19:35.585Z,8.86
2022-09-29T03:19:47.781Z,8.83
2022-09-29T03:19:59.817Z,8.82
2022-09-29T03:20:12.045Z,8.79
2022-09-29T03:20:24.578Z,8.77
2022-09-29T03:20:36.559Z,8.75
2022-09-29T03:20:48.596Z,8.77
2022-09-29T03:21:00.578Z,8.75
2022-09-29T03:21:12.557Z,8.76
2022-09-29T03:21:24.573Z,8.70
2022-09-29T03:21:39.116Z,8.71
2022-09-29T03:21:51.065Z,8.72
2022-09-29T03:22:03.698Z,8.76
2022-09-29T03:22:15.726Z,8.76
2022-09-29T03:22:27.699Z,8.73
2022-09-29T03:22:39.717Z,8.72
2022-09-29T03:22:55.960Z,8.61
2022-09-29T03:23:07.967Z,8.52
2022-09-29T03:23:22.522Z,8.45
2022-09-29T03:23:36.386Z,8.34
2022-09-29T03:23:48.585Z,8.35
2022-09-29T03:24:01.124Z,8.35
2022-09-29T03:24:16.130Z,8.30
2022-09-29T03:24:31.666Z,8.26
2022-09-29T03:24:43.898Z,8.31
2022-09-29T03:24:55.874Z,8.24
2022-09-29T03:25:08.933Z,8.22
2022-09-29T03:25:22.415Z,8.12
2022-09-29T03:25:34.476Z,8.08
2022-09-29T03:25:46.420Z,8.08
2022-09-29T03:25:59.385Z,8.03
2022-09-29T03:26:11.387Z,8.01
2022-09-29T03:26:24.037Z,8.04
2022-09-29T03:26:38.354Z,7.96
2022-09-29T03:26:50.423Z,7.94
2022-09-29T03:27:02.465Z,7.92
2022-09-29T03:27:14.623Z,7.90
2022-09-29T03:27:26.616Z,7.92
2022-09-29T03:27:39.235Z,7.95
2022-09-29T03:27:51.695Z,8.03
2022-09-29T03:28:03.736Z,8.05
2022-09-29T03:28:16.554Z,8.06
2022-09-29T03:28:28.536Z,7.98
2022-09-29T03:28:40.585Z,7.93
2022-09-29T03:28:52.926Z,7.96
2022-09-29T03:29:04.927Z,7.91
2022-09-29T03:29:16.941Z,7.90
2022-09-29T03:29:28.964Z,7.88
2022-09-29T03:29:41.069Z,7.92
2022-09-29T03:29:53.075Z,7.96
2022-09-29T03:30:05.578Z,8.00
2022-09-29T03:30:18.923Z,8.05
2022-09-29T03:30:32.961Z,8.00
2022-09-29T03:30:47.622Z,7.99
2022-09-29T03:31:09.992Z,8.11
2022-09-29T03:31:22.162Z,8.16
2022-09-29T03:31:34.352Z,8.22
2022-09-29T03:31:46.387Z,8.27
2022-09-29T03:32:00.123Z,8.32
2022-09-29T03:32:14.714Z,8.35
2022-09-29T03:32:26.724Z,8.33
2022-09-29T03:32:42.194Z,8.26
2022-09-29T03:32:54.271Z,8.25
2022-09-29T03:33:06.263Z,8.22
2022-09-29T03:33:18.496Z,8.20
2022-09-29T03:33:30.500Z,8.24
2022-09-29T03:33:42.571Z,8.24
2022-09-29T03:33:54.632Z,8.28
2022-09-29T03:34:15.904Z,8.28
2022-09-29T03:34:29.411Z,8.13
2022-09-29T03:34:41.396Z,8.08
2022-09-29T03:34:53.421Z,8.06
2022-09-29T03:35:06.166Z,8.12
2022-09-29T03:35:18.350Z,8.19
2022-09-29T03:35:30.328Z,8.24
2022-09-29T03:35:44.450Z,8.14
2022-09-29T03:35:56.652Z,8.18
2022-09-29T03:36:09.643Z,8.23
2022-09-29T03:36:21.597Z,8.25
2022-09-29T03:36:33.586Z,8.26
2022-09-29T03:36:45.662Z,8.30
2022-09-29T03:36:58.232Z,8.27
2022-09-29T03:37:10.322Z,8.26
2022-09-29T03:37:22.472Z,8.28
2022-09-29T03:37:34.579Z,8.19
2022-09-29T03:37:46.560Z,8.19
2022-09-29T03:37:59.878Z,8.25
2022-09-29T03:38:11.831Z,8.24
2022-09-29T03:38:23.893Z,8.21
2022-09-29T03:38:35.877Z,8.17
2022-09-29T03:38:47.838Z,8.12
2022-09-29T03:38:59.833Z,8.11
2022-09-29T03:39:11.929Z,8.14
2022-09-29T03:39:24.677Z,8.17
2022-09-29T03:39:39.577Z,8.20
2022-09-29T03:39:51.572Z,8.14
2022-09-29T03:40:05.990Z,8.20
2022-09-29T03:40:18.047Z,8.24
2022-09-29T03:40:30.092Z,8.26
2022-09-29T03:40:44.862Z,8.28
2022-09-29T03:40:58.467Z,8.28
2022-09-29T03:41:10.417Z,8.32
2022-09-29T03:41:22.430Z,8.33